Airfield :
LOGIN :

Register | Disclaimer

   EN    FR    IT 

 










Legend :    VFR   Marginal VFR   IFR   Intensive IFR   Very Intensive IFR
Visi :
Ceiling :
>= 8 km
>= 3000ft
5 to 8 km
1000 to 3000 ft
1500m to 5 km
500 to 1000 ft
800 to 1500m
200 to 500 ft
< 800m
< 200 ft
Symbols :   Thunderstorms  Fog  Heavy snow  Heavy precipitations  Wind > 20 kt
SIGMETs :     Misc.  Thunderstorms  Icing  Turbulence  Mountain Waves  Volcanic Ashes






- Airport Elevation : 405 ft
- IATA code : ODH


EGVO - RAF Odiham

CURRENT METAR :
  • 180550Z 34006KT CAVOK 12/10 Q1014 RMK BLU

EXPIRED METARs :
  • 180520Z AUTO 33004KT 9999 OVC160/// 12/10 Q1014
  • 180450Z AUTO 33005KT 9999 OVC170/// 11/10 Q1014
  • 180420Z AUTO 29003KT 9999 BKN170/// 11/09 Q1014
  • 180350Z AUTO 28003KT 9999 FEW180/// 11/09 Q1013
  • 180320Z AUTO 24003KT 9999 SCT180/// 11/09 Q1013
  • 180250Z AUTO 29003KT 9999 BKN180/// 12/09 Q1013
  • 180220Z AUTO 24003KT 9999 OVC180/// 12/09 Q1013
  • 180150Z AUTO 27003KT 9999 OVC180/// 12/09 Q1013
  • 180120Z AUTO 27003KT 9999 OVC170/// 13/09 Q1013

TAF TAF EGVO
Valid from the 18 at 00:00 until the 18 at 12:00 UTC


172223Z 1800/1812 27004KT CAVOK



MET'MAP, your aeronautical weather chart ! - Copyright ORBIFLY December 2007 - Disclaimer

ORBIFLY MET'MAP TEAM :

Programming & Development : Alexandra Zaïnal
Original concept : Baudouin d'Aumeries
Technical & hardware support : Manuel Goepfert
Assistance : Marc-Olivier Méhu




SOURCES & CREDITS :

   NOAA